MSC Chiara — H3RT — position and weather

sailwx.info

Track history (hours):
 
Tides and Currents Weather Stations Pressure Air Temp Water Temp Dewpoint Dewpoint Depression Visibility Wind Speed Wind Dir Waves Ship Positions

MSC Chiara

Last reported at 2017-Aug-19 22:21 UTC. Time now 2017-Aug-20 01:54 UTC.
Position S 30°24' E 030°47'.

Length 197 m; draft 12.5 m.

Type: Ship (hazmat cat A). MMSI: 352398000.

Date/timePositionNaut miles runAvg speedWind from/ knotsBaromVisibWave heightAir tempDewpointWater temp
2017-Aug-19 22:21S 30°24' E 030°47'514.8
2017-Aug-19 22:00S 30°20' E 030°51'714.9
2017-Aug-19 21:30S 30°14' E 030°56'714.8
2017-Aug-19 21:00S 30°08' E 031°01'815.1
2017-Aug-19 20:31S 30°02' E 031°07'612.6
2017-Aug-19 20:00S 29°57' E 031°11'612.4
2017-Aug-19 19:31S 29°52' E 031°15'612.2
2017-Aug-19 19:00S 29°48' E 031°20'713.3
2017-Aug-19 18:31S 29°43' E 031°26'713.9
2017-Aug-19 18:00S 29°38' E 031°31'713.7
2017-Aug-19 17:30S 29°33' E 031°37'713.7
2017-Aug-19 17:00S 29°28' E 031°42'  
Track history (hours):
 
Tides and Currents Weather Stations Pressure Air Temp Water Temp Dewpoint Dewpoint Depression Visibility Wind Speed Wind Dir Waves Ship Positions

MSC Chiara

Last reported at 2017-Aug-19 22:21 UTC. Time now 2017-Aug-20 01:54 UTC.
Position S 30°24' E 030°47'.

Length 197 m; draft 12.5 m.

Type: Ship (hazmat cat A). MMSI: 352398000.

Date/timePositionNaut miles runAvg speedWind from/ knotsBaromVisibWave heightAir tempDewpointWater temp
2017-Aug-19 22:21S 30°24' E 030°47'514.8
2017-Aug-19 22:00S 30°20' E 030°51'714.9
2017-Aug-19 21:30S 30°14' E 030°56'714.8
2017-Aug-19 21:00S 30°08' E 031°01'815.1
2017-Aug-19 20:31S 30°02' E 031°07'612.6
2017-Aug-19 20:00S 29°57' E 031°11'612.4
2017-Aug-19 19:31S 29°52' E 031°15'612.2
2017-Aug-19 19:00S 29°48' E 031°20'713.3
2017-Aug-19 18:31S 29°43' E 031°26'713.9
2017-Aug-19 18:00S 29°38' E 031°31'713.7
2017-Aug-19 17:30S 29°33' E 031°37'713.7
2017-Aug-19 17:00S 29°28' E 031°42'  

Dump ship's entire track history